sensor_id;sensor_type;location;lat;lon;timestamp;temperature;humidity
19561;DHT22;9927;47.792;10.616;2022-11-15T04:02:23;3.30;99.90
19561;DHT22;9927;47.792;10.616;2022-11-15T04:04:51;3.30;99.90
19561;DHT22;9927;47.792;10.616;2022-11-15T04:07:18;3.30;99.90
19561;DHT22;9927;47.792;10.616;2022-11-15T04:09:45;3.30;99.90
19561;DHT22;9927;47.792;10.616;2022-11-15T04:12:35;3.30;99.90
19561;DHT22;9927;47.792;10.616;2022-11-15T04:15:06;3.30;99.90
19561;DHT22;9927;47.792;10.616;2022-11-15T04:17:47;3.30;99.90
19561;DHT22;9927;47.792;10.616;2022-11-15T04:20:23;3.20;99.90
19561;DHT22;9927;47.792;10.616;2022-11-15T04:25:59;3.10;99.90
19561;DHT22;9927;47.792;10.616;2022-11-15T04:28:28;3.00;99.90
19561;DHT22;9927;47.792;10.616;2022-11-15T04:30:55;3.00;99.90
19561;DHT22;9927;47.792;10.616;2022-11-15T04:33:22;3.10;99.90
19561;DHT22;9927;47.792;10.616;2022-11-15T04:35:50;3.00;99.90
19561;DHT22;9927;47.792;10.616;2022-11-15T04:38:36;3.10;99.90
19561;DHT22;9927;47.792;10.616;2022-11-15T04:41:04;3.10;99.90
19561;DHT22;9927;47.792;10.616;2022-11-15T04:43:31;3.10;99.90
19561;DHT22;9927;47.792;10.616;2022-11-15T04:45:58;3.10;99.90
19561;DHT22;9927;47.792;10.616;2022-11-15T04:48:26;3.20;99.90
19561;DHT22;9927;47.792;10.616;2022-11-15T04:50:53;3.10;99.90
19561;DHT22;9927;47.792;10.616;2022-11-15T04:53:20;3.10;99.90
19561;DHT22;9927;47.792;10.616;2022-11-15T04:55:47;3.20;99.90
19561;DHT22;9927;47.792;10.616;2022-11-15T04:58:14;3.20;99.90
19561;DHT22;9927;47.792;10.616;2022-11-15T05:00:41;3.20;99.90
19561;DHT22;9927;47.792;10.616;2022-11-15T05:03:09;3.20;99.90
19561;DHT22;9927;47.792;10.616;2022-11-15T05:05:57;3.20;99.90
19561;DHT22;9927;47.792;10.616;2022-11-15T05:08:25;3.20;99.90
19561;DHT22;9927;47.792;10.616;2022-11-15T05:10:52;3.10;99.90
19561;DHT22;9927;47.792;10.616;2022-11-15T05:13:20;3.10;99.90
19561;DHT22;9927;47.792;10.616;2022-11-15T05:15:47;3.10;99.90
19561;DHT22;9927;47.792;10.616;2022-11-15T05:18:15;3.00;99.90
19561;DHT22;9927;47.792;10.616;2022-11-15T05:20:49;2.90;99.90
19561;DHT22;9927;47.792;10.616;2022-11-15T05:23:16;2.90;99.90
19561;DHT22;9927;47.792;10.616;2022-11-15T05:25:43;2.90;99.90
19561;DHT22;9927;47.792;10.616;2022-11-15T05:28:10;2.90;99.90
19561;DHT22;9927;47.792;10.616;2022-11-15T05:30:38;2.80;99.90
19561;DHT22;9927;47.792;10.616;2022-11-15T05:33:05;2.80;99.90
19561;DHT22;9927;47.792;10.616;2022-11-15T05:35:39;2.80;99.90
19561;DHT22;9927;47.792;10.616;2022-11-15T05:38:07;2.80;99.90
19561;DHT22;9927;47.792;10.616;2022-11-15T05:40:34;2.90;99.90
19561;DHT22;9927;47.792;10.616;2022-11-15T05:43:04;2.90;99.90
19561;DHT22;9927;47.792;10.616;2022-11-15T05:45:33;2.60;99.90
19561;DHT22;9927;47.792;10.616;2022-11-15T05:48:05;2.70;99.90
19561;DHT22;9927;47.792;10.616;2022-11-15T05:50:36;2.70;99.90
19561;DHT22;9927;47.792;10.616;2022-11-15T05:53:05;2.70;99.90
19561;DHT22;9927;47.792;10.616;2022-11-15T05:55:33;2.90;99.90
19561;DHT22;9927;47.792;10.616;2022-11-15T05:58:01;2.90;99.90
19561;DHT22;9927;47.792;10.616;2022-11-15T06:00:28;2.80;99.90
19561;DHT22;9927;47.792;10.616;2022-11-15T06:02:55;2.70;99.90
19561;DHT22;9927;47.792;10.616;2022-11-15T06:05:22;2.80;99.90
19561;DHT22;9927;47.792;10.616;2022-11-15T06:07:50;2.80;99.90
19561;DHT22;9927;47.792;10.616;2022-11-15T06:10:17;2.70;99.90
19561;DHT22;9927;47.792;10.616;2022-11-15T06:12:44;2.80;99.90
19561;DHT22;9927;47.792;10.616;2022-11-15T06:15:11;2.60;99.90
19561;DHT22;9927;47.792;10.616;2022-11-15T06:17:39;2.60;99.90
19561;DHT22;9927;47.792;10.616;2022-11-15T06:20:06;2.60;99.90
19561;DHT22;9927;47.792;10.616;2022-11-15T06:22:33;2.60;99.90
19561;DHT22;9927;47.792;10.616;2022-11-15T06:25:00;2.60;99.90
19561;DHT22;9927;47.792;10.616;2022-11-15T06:27:31;2.70;99.90
19561;DHT22;9927;47.792;10.616;2022-11-15T06:29:58;2.70;99.90
19561;DHT22;9927;47.792;10.616;2022-11-15T06:32:26;2.70;99.90
19561;DHT22;9927;47.792;10.616;2022-11-15T06:34:53;2.80;99.90
19561;DHT22;9927;47.792;10.616;2022-11-15T06:37:20;2.80;99.90
19561;DHT22;9927;47.792;10.616;2022-11-15T06:39:47;2.80;99.90
19561;DHT22;9927;47.792;10.616;2022-11-15T06:42:14;2.80;99.90
19561;DHT22;9927;47.792;10.616;2022-11-15T06:44:41;2.90;99.90
19561;DHT22;9927;47.792;10.616;2022-11-15T06:47:09;3.00;99.90
19561;DHT22;9927;47.792;10.616;2022-11-15T06:49:36;3.10;99.90
19561;DHT22;9927;47.792;10.616;2022-11-15T06:52:03;3.00;99.90
19561;DHT22;9927;47.792;10.616;2022-11-15T06:54:31;2.90;99.90
19561;DHT22;9927;47.792;10.616;2022-11-15T06:56:58;2.80;99.90
19561;DHT22;9927;47.792;10.616;2022-11-15T06:59:25;2.90;99.90
19561;DHT22;9927;47.792;10.616;2022-11-15T07:01:52;3.10;99.90
19561;DHT22;9927;47.792;10.616;2022-11-15T07:04:19;3.10;99.90
19561;DHT22;9927;47.792;10.616;2022-11-15T07:06:47;3.20;99.90
19561;DHT22;9927;47.792;10.616;2022-11-15T07:09:15;3.30;99.90
19561;DHT22;9927;47.792;10.616;2022-11-15T07:11:42;3.40;99.90
19561;DHT22;9927;47.792;10.616;2022-11-15T07:14:09;3.40;99.90
19561;DHT22;9927;47.792;10.616;2022-11-15T07:16:37;3.50;99.90
19561;DHT22;9927;47.792;10.616;2022-11-15T07:19:04;3.60;99.90
19561;DHT22;9927;47.792;10.616;2022-11-15T07:21:32;3.80;99.90
19561;DHT22;9927;47.792;10.616;2022-11-15T07:23:59;3.80;99.90
19561;DHT22;9927;47.792;10.616;2022-11-15T07:26:26;3.90;99.90
19561;DHT22;9927;47.792;10.616;2022-11-15T07:28:54;3.90;99.90
19561;DHT22;9927;47.792;10.616;2022-11-15T07:31:21;4.00;99.90
19561;DHT22;9927;47.792;10.616;2022-11-15T07:33:49;4.00;99.90
19561;DHT22;9927;47.792;10.616;2022-11-15T07:36:16;4.00;99.90
19561;DHT22;9927;47.792;10.616;2022-11-15T07:38:44;3.90;99.90
19561;DHT22;9927;47.792;10.616;2022-11-15T07:41:11;3.90;99.90
19561;DHT22;9927;47.792;10.616;2022-11-15T07:43:38;3.90;99.90
19561;DHT22;9927;47.792;10.616;2022-11-15T07:46:07;4.00;99.90
19561;DHT22;9927;47.792;10.616;2022-11-15T07:48:37;4.10;99.90
19561;DHT22;9927;47.792;10.616;2022-11-15T07:51:14;4.30;99.90
19561;DHT22;9927;47.792;10.616;2022-11-15T07:53:42;4.30;99.90
19561;DHT22;9927;47.792;10.616;2022-11-15T07:56:10;4.30;99.90
19561;DHT22;9927;47.792;10.616;2022-11-15T07:58:37;4.00;99.90
19561;DHT22;9927;47.792;10.616;2022-11-15T08:01:06;4.00;99.90
19561;DHT22;9927;47.792;10.616;2022-11-15T08:03:34;4.00;99.90
19561;DHT22;9927;47.792;10.616;2022-11-15T08:06:02;4.20;99.90
19561;DHT22;9927;47.792;10.616;2022-11-15T08:08:29;4.40;99.90
19561;DHT22;9927;47.792;10.616;2022-11-15T08:11:00;4.70;99.90
19561;DHT22;9927;47.792;10.616;2022-11-15T08:13:27;4.80;99.90
19561;DHT22;9927;47.792;10.616;2022-11-15T08:15:59;4.90;99.90
19561;DHT22;9927;47.792;10.616;2022-11-15T08:18:27;5.10;99.90
19561;DHT22;9927;47.792;10.616;2022-11-15T08:20:59;5.40;99.90
19561;DHT22;9927;47.792;10.616;2022-11-15T08:23:26;5.40;99.90
19561;DHT22;9927;47.792;10.616;2022-11-15T08:26:00;5.40;99.90
19561;DHT22;9927;47.792;10.616;2022-11-15T08:28:27;5.50;99.90
19561;DHT22;9927;47.792;10.616;2022-11-15T08:30:55;6.00;99.90
19561;DHT22;9927;47.792;10.616;2022-11-15T08:33:22;6.10;99.90
19561;DHT22;9927;47.792;10.616;2022-11-15T08:35:49;6.20;99.90
19561;DHT22;9927;47.792;10.616;2022-11-15T08:38:16;6.50;99.90
19561;DHT22;9927;47.792;10.616;2022-11-15T08:40:44;6.70;99.90
19561;DHT22;9927;47.792;10.616;2022-11-15T08:43:11;6.70;99.90
19561;DHT22;9927;47.792;10.616;2022-11-15T08:45:38;6.80;99.90
19561;DHT22;9927;47.792;10.616;2022-11-15T08:48:05;6.90;99.90
19561;DHT22;9927;47.792;10.616;2022-11-15T08:50:32;7.10;99.90
19561;DHT22;9927;47.792;10.616;2022-11-15T08:53:07;7.10;99.90
19561;DHT22;9927;47.792;10.616;2022-11-15T08:55:39;7.20;99.90
19561;DHT22;9927;47.792;10.616;2022-11-15T08:58:06;7.20;99.90
19561;DHT22;9927;47.792;10.616;2022-11-15T09:00:34;7.30;99.90
19561;DHT22;9927;47.792;10.616;2022-11-15T09:03:04;7.30;99.90
19561;DHT22;9927;47.792;10.616;2022-11-15T09:05:32;7.40;99.90
19561;DHT22;9927;47.792;10.616;2022-11-15T09:07:59;7.50;99.90
19561;DHT22;9927;47.792;10.616;2022-11-15T09:10:30;7.80;99.90
19561;DHT22;9927;47.792;10.616;2022-11-15T09:12:57;7.70;99.90
19561;DHT22;9927;47.792;10.616;2022-11-15T09:15:24;7.80;99.90
19561;DHT22;9927;47.792;10.616;2022-11-15T09:17:52;7.90;99.90
19561;DHT22;9927;47.792;10.616;2022-11-15T09:20:19;8.10;99.90
19561;DHT22;9927;47.792;10.616;2022-11-15T09:22:46;8.10;99.90
19561;DHT22;9927;47.792;10.616;2022-11-15T09:25:13;8.20;99.90
19561;DHT22;9927;47.792;10.616;2022-11-15T09:27:40;8.40;99.90
19561;DHT22;9927;47.792;10.616;2022-11-15T09:30:08;8.50;99.90
19561;DHT22;9927;47.792;10.616;2022-11-15T09:32:35;8.60;99.90
19561;DHT22;9927;47.792;10.616;2022-11-15T09:35:05;8.70;99.90
19561;DHT22;9927;47.792;10.616;2022-11-15T09:37:32;8.80;99.90
19561;DHT22;9927;47.792;10.616;2022-11-15T09:40:00;9.00;99.90
19561;DHT22;9927;47.792;10.616;2022-11-15T09:48:59;9.30;99.90
19561;DHT22;9927;47.792;10.616;2022-11-15T09:51:35;9.40;99.90
19561;DHT22;9927;47.792;10.616;2022-11-15T09:57:06;9.60;99.90
19561;DHT22;9927;47.792;10.616;2022-11-15T09:59:46;9.70;99.90
19561;DHT22;9927;47.792;10.616;2022-11-15T10:05:12;9.80;99.90
19561;DHT22;9927;47.792;10.616;2022-11-15T10:07:48;9.80;99.90
19561;DHT22;9927;47.792;10.616;2022-11-15T10:12:52;10.00;99.90
19561;DHT22;9927;47.792;10.616;2022-11-15T10:15:20;10.10;99.90
19561;DHT22;9927;47.792;10.616;2022-11-15T10:20:44;10.40;99.90
19561;DHT22;9927;47.792;10.616;2022-11-15T10:23:15;10.40;99.90
19561;DHT22;9927;47.792;10.616;2022-11-15T10:25:43;10.50;99.90
19561;DHT22;9927;47.792;10.616;2022-11-15T10:28:22;10.60;99.90
19561;DHT22;9927;47.792;10.616;2022-11-15T10:30:55;10.70;99.90
19561;DHT22;9927;47.792;10.616;2022-11-15T10:33:36;10.70;99.90
19561;DHT22;9927;47.792;10.616;2022-11-15T10:41:21;10.90;99.90
19561;DHT22;9927;47.792;10.616;2022-11-15T10:46:35;11.10;99.90
19561;DHT22;9927;47.792;10.616;2022-11-15T10:57:27;11.40;99.90
19561;DHT22;9927;47.792;10.616;2022-11-15T10:59:55;11.50;99.90
19561;DHT22;9927;47.792;10.616;2022-11-15T11:02:43;11.60;99.90
19561;DHT22;9927;47.792;10.616;2022-11-15T11:05:34;11.60;99.90
19561;DHT22;9927;47.792;10.616;2022-11-15T11:10:53;11.70;99.90
19561;DHT22;9927;47.792;10.616;2022-11-15T11:13:36;11.70;99.90
19561;DHT22;9927;47.792;10.616;2022-11-15T11:16:22;11.70;99.90
19561;DHT22;9927;47.792;10.616;2022-11-15T11:28:05;11.90;99.90
19561;DHT22;9927;47.792;10.616;2022-11-15T11:44:21;12.10;99.90
19561;DHT22;9927;47.792;10.616;2022-11-15T11:47:20;12.10;99.90
19561;DHT22;9927;47.792;10.616;2022-11-15T11:49:53;12.20;99.90
19561;DHT22;9927;47.792;10.616;2022-11-15T11:52:28;12.20;99.90
19561;DHT22;9927;47.792;10.616;2022-11-15T11:55:20;12.20;99.90
19561;DHT22;9927;47.792;10.616;2022-11-15T12:00:22;12.20;99.90
19561;DHT22;9927;47.792;10.616;2022-11-15T12:03:18;12.30;99.90
19561;DHT22;9927;47.792;10.616;2022-11-15T12:05:55;12.30;99.90
19561;DHT22;9927;47.792;10.616;2022-11-15T12:11:21;12.60;99.90
19561;DHT22;9927;47.792;10.616;2022-11-15T12:13:56;12.50;99.90
19561;DHT22;9927;47.792;10.616;2022-11-15T12:16:30;12.70;99.90
19561;DHT22;9927;47.792;10.616;2022-11-15T12:19:02;12.70;99.90
19561;DHT22;9927;47.792;10.616;2022-11-15T12:21:50;12.70;99.90
19561;DHT22;9927;47.792;10.616;2022-11-15T12:25:17;12.80;99.90
19561;DHT22;9927;47.792;10.616;2022-11-15T12:27:31;12.80;99.90
19561;DHT22;9927;47.792;10.616;2022-11-15T12:30:10;12.80;99.90
19561;DHT22;9927;47.792;10.616;2022-11-15T12:32:39;12.90;99.90
19561;DHT22;9927;47.792;10.616;2022-11-15T12:35:25;12.90;99.90
19561;DHT22;9927;47.792;10.616;2022-11-15T12:37:56;13.00;99.90
19561;DHT22;9927;47.792;10.616;2022-11-15T12:40:32;13.10;99.90
19561;DHT22;9927;47.792;10.616;2022-11-15T12:45:46;13.20;99.90
19561;DHT22;9927;47.792;10.616;2022-11-15T12:53:29;13.10;99.90
19561;DHT22;9927;47.792;10.616;2022-11-15T13:06:56;13.00;99.90
19561;DHT22;9927;47.792;10.616;2022-11-15T13:12:07;12.80;99.90
19561;DHT22;9927;47.792;10.616;2022-11-15T13:14:43;12.70;99.90
19561;DHT22;9927;47.792;10.616;2022-11-15T13:19:52;12.60;99.90
19561;DHT22;9927;47.792;10.616;2022-11-15T13:22:19;12.60;99.90
19561;DHT22;9927;47.792;10.616;2022-11-15T13:28:00;12.60;99.90
19561;DHT22;9927;47.792;10.616;2022-11-15T13:30:35;12.60;99.90
19561;DHT22;9927;47.792;10.616;2022-11-15T13:35:54;12.60;99.90
19561;DHT22;9927;47.792;10.616;2022-11-15T13:38:26;12.60;99.90
19561;DHT22;9927;47.792;10.616;2022-11-15T13:40:55;12.60;99.90
19561;DHT22;9927;47.792;10.616;2022-11-15T13:48:37;12.70;99.90
19561;DHT22;9927;47.792;10.616;2022-11-15T13:51:17;12.70;99.90
19561;DHT22;9927;47.792;10.616;2022-11-15T13:54:55;12.70;99.90
19561;DHT22;9927;47.792;10.616;2022-11-15T13:56:52;12.70;99.90
19561;DHT22;9927;47.792;10.616;2022-11-15T14:01:55;12.90;99.90
19561;DHT22;9927;47.792;10.616;2022-11-15T14:04:24;12.90;99.90
19561;DHT22;9927;47.792;10.616;2022-11-15T14:06:55;13.00;99.90
19561;DHT22;9927;47.792;10.616;2022-11-15T14:11:58;12.90;99.90
19561;DHT22;9927;47.792;10.616;2022-11-15T14:14:27;12.90;99.90
19561;DHT22;9927;47.792;10.616;2022-11-15T14:16:59;12.90;99.90
19561;DHT22;9927;47.792;10.616;2022-11-15T14:24:40;12.90;99.90
19561;DHT22;9927;47.792;10.616;2022-11-15T14:27:17;12.80;99.90
19561;DHT22;9927;47.792;10.616;2022-11-15T14:29:45;12.70;99.90
19561;DHT22;9927;47.792;10.616;2022-11-15T14:32:16;12.50;99.90
19561;DHT22;9927;47.792;10.616;2022-11-15T14:34:44;12.60;99.90
19561;DHT22;9927;47.792;10.616;2022-11-15T14:37:31;12.70;99.90
19561;DHT22;9927;47.792;10.616;2022-11-15T14:40:03;12.70;99.90
19561;DHT22;9927;47.792;10.616;2022-11-15T14:42:31;12.70;99.90
19561;DHT22;9927;47.792;10.616;2022-11-15T14:44:58;12.70;99.90
19561;DHT22;9927;47.792;10.616;2022-11-15T14:47:26;12.70;99.90
19561;DHT22;9927;47.792;10.616;2022-11-15T14:49:53;12.60;99.90
19561;DHT22;9927;47.792;10.616;2022-11-15T14:52:29;12.50;99.90
19561;DHT22;9927;47.792;10.616;2022-11-15T14:55:00;12.40;99.90
19561;DHT22;9927;47.792;10.616;2022-11-15T14:57:29;12.40;99.90
19561;DHT22;9927;47.792;10.616;2022-11-15T14:59:57;12.30;99.90
19561;DHT22;9927;47.792;10.616;2022-11-15T15:02:26;12.30;99.90
19561;DHT22;9927;47.792;10.616;2022-11-15T15:04:53;12.20;99.90
19561;DHT22;9927;47.792;10.616;2022-11-15T15:07:21;12.10;99.90
19561;DHT22;9927;47.792;10.616;2022-11-15T15:09:49;12.10;99.90
19561;DHT22;9927;47.792;10.616;2022-11-15T15:12:22;11.90;99.90
19561;DHT22;9927;47.792;10.616;2022-11-15T15:14:50;11.90;99.90
19561;DHT22;9927;47.792;10.616;2022-11-15T15:17:17;12.00;99.90
19561;DHT22;9927;47.792;10.616;2022-11-15T15:19:45;11.90;99.90
19561;DHT22;9927;47.792;10.616;2022-11-15T15:22:17;11.90;99.90
19561;DHT22;9927;47.792;10.616;2022-11-15T15:24:45;11.90;99.90
19561;DHT22;9927;47.792;10.616;2022-11-15T15:27:13;11.80;99.90
19561;DHT22;9927;47.792;10.616;2022-11-15T15:29:40;11.80;99.90
19561;DHT22;9927;47.792;10.616;2022-11-15T15:32:08;11.70;99.90
19561;DHT22;9927;47.792;10.616;2022-11-15T15:34:35;11.70;99.90
19561;DHT22;9927;47.792;10.616;2022-11-15T15:37:25;11.60;99.90
19561;DHT22;9927;47.792;10.616;2022-11-15T15:39:56;11.50;99.90
19561;DHT22;9927;47.792;10.616;2022-11-15T15:42:23;11.40;99.90
19561;DHT22;9927;47.792;10.616;2022-11-15T15:44:51;11.30;99.90
19561;DHT22;9927;47.792;10.616;2022-11-15T15:47:23;11.30;99.90
19561;DHT22;9927;47.792;10.616;2022-11-15T15:49:50;11.20;99.90
19561;DHT22;9927;47.792;10.616;2022-11-15T15:52:17;11.20;99.90
19561;DHT22;9927;47.792;10.616;2022-11-15T15:54:45;11.20;99.90
19561;DHT22;9927;47.792;10.616;2022-11-15T15:57:13;11.20;99.90
19561;DHT22;9927;47.792;10.616;2022-11-15T15:59:41;11.20;99.90
19561;DHT22;9927;47.792;10.616;2022-11-15T16:02:11;11.20;99.90
19561;DHT22;9927;47.792;10.616;2022-11-15T16:04:39;11.20;99.90
19561;DHT22;9927;47.792;10.616;2022-11-15T16:07:16;11.20;99.90
19561;DHT22;9927;47.792;10.616;2022-11-15T16:09:44;11.20;99.90
19561;DHT22;9927;47.792;10.616;2022-11-15T16:14:55;11.10;99.90
19561;DHT22;9927;47.792;10.616;2022-11-15T16:17:24;11.10;99.90
19561;DHT22;9927;47.792;10.616;2022-11-15T16:20:00;11.10;99.90
19561;DHT22;9927;47.792;10.616;2022-11-15T16:22:27;11.00;99.90
19561;DHT22;9927;47.792;10.616;2022-11-15T16:24:56;11.00;99.90
19561;DHT22;9927;47.792;10.616;2022-11-15T16:27:23;10.90;99.90
19561;DHT22;9927;47.792;10.616;2022-11-15T16:29:51;10.80;99.90
19561;DHT22;9927;47.792;10.616;2022-11-15T16:32:18;10.80;99.90
19561;DHT22;9927;47.792;10.616;2022-11-15T16:37:21;10.60;99.90
19561;DHT22;9927;47.792;10.616;2022-11-15T16:39:50;10.50;99.90
19561;DHT22;9927;47.792;10.616;2022-11-15T16:42:17;10.50;99.90
19561;DHT22;9927;47.792;10.616;2022-11-15T16:44:44;10.40;99.90
19561;DHT22;9927;47.792;10.616;2022-11-15T16:47:18;10.50;99.90
19561;DHT22;9927;47.792;10.616;2022-11-15T16:49:49;10.50;99.90
19561;DHT22;9927;47.792;10.616;2022-11-15T16:52:16;10.50;99.90
19561;DHT22;9927;47.792;10.616;2022-11-15T16:54:47;10.50;99.90
19561;DHT22;9927;47.792;10.616;2022-11-15T16:57:15;10.50;99.90
19561;DHT22;9927;47.792;10.616;2022-11-15T16:59:42;10.50;99.90
19561;DHT22;9927;47.792;10.616;2022-11-15T17:02:13;10.40;99.90
19561;DHT22;9927;47.792;10.616;2022-11-15T17:04:40;10.40;99.90
19561;DHT22;9927;47.792;10.616;2022-11-15T17:07:08;10.40;99.90
19561;DHT22;9927;47.792;10.616;2022-11-15T17:09:35;10.40;99.90
19561;DHT22;9927;47.792;10.616;2022-11-15T17:12:03;10.40;99.90
19561;DHT22;9927;47.792;10.616;2022-11-15T17:14:30;10.40;99.90
19561;DHT22;9927;47.792;10.616;2022-11-15T17:16:57;10.30;99.90
19561;DHT22;9927;47.792;10.616;2022-11-15T17:19:24;10.20;99.90
19561;DHT22;9927;47.792;10.616;2022-11-15T17:21:51;10.30;99.90
19561;DHT22;9927;47.792;10.616;2022-11-15T17:24:19;10.30;99.90
19561;DHT22;9927;47.792;10.616;2022-11-15T17:26:47;10.20;99.90
19561;DHT22;9927;47.792;10.616;2022-11-15T17:29:14;10.20;99.90
19561;DHT22;9927;47.792;10.616;2022-11-15T17:31:41;10.20;99.90
19561;DHT22;9927;47.792;10.616;2022-11-15T17:34:08;10.20;99.90
19561;DHT22;9927;47.792;10.616;2022-11-15T17:36:36;10.10;99.90
19561;DHT22;9927;47.792;10.616;2022-11-15T17:39:03;9.90;99.90
19561;DHT22;9927;47.792;10.616;2022-11-15T17:41:31;9.70;99.90
19561;DHT22;9927;47.792;10.616;2022-11-15T17:43:59;9.70;99.90
19561;DHT22;9927;47.792;10.616;2022-11-15T17:46:27;9.70;99.90
19561;DHT22;9927;47.792;10.616;2022-11-15T17:48:55;9.80;99.90
19561;DHT22;9927;47.792;10.616;2022-11-15T17:51:23;9.90;99.90
19561;DHT22;9927;47.792;10.616;2022-11-15T17:53:50;9.70;99.90
19561;DHT22;9927;47.792;10.616;2022-11-15T17:56:19;9.70;99.90
19561;DHT22;9927;47.792;10.616;2022-11-15T17:58:52;9.70;99.90
19561;DHT22;9927;47.792;10.616;2022-11-15T18:03:55;9.80;99.90
19561;DHT22;9927;47.792;10.616;2022-11-15T18:06:23;9.80;99.90
19561;DHT22;9927;47.792;10.616;2022-11-15T18:08:52;9.80;99.90
19561;DHT22;9927;47.792;10.616;2022-11-15T18:11:27;9.80;99.90
19561;DHT22;9927;47.792;10.616;2022-11-15T18:13:59;9.90;99.90
19561;DHT22;9927;47.792;10.616;2022-11-15T18:16:29;9.80;99.90
19561;DHT22;9927;47.792;10.616;2022-11-15T18:18:57;9.80;99.90
19561;DHT22;9927;47.792;10.616;2022-11-15T18:21:29;9.80;99.90
19561;DHT22;9927;47.792;10.616;2022-11-15T18:23:58;9.80;99.90
19561;DHT22;9927;47.792;10.616;2022-11-15T18:26:28;9.80;99.90
19561;DHT22;9927;47.792;10.616;2022-11-15T18:29:01;9.80;99.90
19561;DHT22;9927;47.792;10.616;2022-11-15T18:31:30;9.80;99.90
19561;DHT22;9927;47.792;10.616;2022-11-15T18:33:58;9.80;99.90
19561;DHT22;9927;47.792;10.616;2022-11-15T18:36:28;9.80;99.90
19561;DHT22;9927;47.792;10.616;2022-11-15T18:38:57;9.80;99.90
19561;DHT22;9927;47.792;10.616;2022-11-15T18:41:25;9.80;99.90
19561;DHT22;9927;47.792;10.616;2022-11-15T18:43:56;9.80;99.90
19561;DHT22;9927;47.792;10.616;2022-11-15T18:46:26;9.80;99.90
19561;DHT22;9927;47.792;10.616;2022-11-15T18:48:54;9.80;99.90
19561;DHT22;9927;47.792;10.616;2022-11-15T18:51:24;9.80;99.90
19561;DHT22;9927;47.792;10.616;2022-11-15T18:53:53;9.80;99.90
19561;DHT22;9927;47.792;10.616;2022-11-15T18:56:21;9.70;99.90
19561;DHT22;9927;47.792;10.616;2022-11-15T18:58:51;9.50;99.90
19561;DHT22;9927;47.792;10.616;2022-11-15T19:01:23;9.50;99.90
19561;DHT22;9927;47.792;10.616;2022-11-15T19:03:53;9.50;99.90
19561;DHT22;9927;47.792;10.616;2022-11-15T19:06:22;9.50;99.90
19561;DHT22;9927;47.792;10.616;2022-11-15T19:08:51;9.60;99.90
19561;DHT22;9927;47.792;10.616;2022-11-15T19:11:21;9.30;99.90
19561;DHT22;9927;47.792;10.616;2022-11-15T19:14:10;9.30;99.90
19561;DHT22;9927;47.792;10.616;2022-11-15T19:16:42;9.20;99.90
19561;DHT22;9927;47.792;10.616;2022-11-15T19:19:18;9.10;99.90
19561;DHT22;9927;47.792;10.616;2022-11-15T19:21:46;9.20;99.90
19561;DHT22;9927;47.792;10.616;2022-11-15T19:24:14;9.20;99.90
19561;DHT22;9927;47.792;10.616;2022-11-15T19:26:41;9.10;99.90
19561;DHT22;9927;47.792;10.616;2022-11-15T19:29:09;9.10;99.90
19561;DHT22;9927;47.792;10.616;2022-11-15T19:31:37;8.90;99.90
19561;DHT22;9927;47.792;10.616;2022-11-15T19:34:05;8.90;99.90
19561;DHT22;9927;47.792;10.616;2022-11-15T19:36:40;8.80;99.90
19561;DHT22;9927;47.792;10.616;2022-11-15T19:39:14;9.00;99.90
19561;DHT22;9927;47.792;10.616;2022-11-15T19:41:44;9.00;99.90
19561;DHT22;9927;47.792;10.616;2022-11-15T19:44:12;9.10;99.90
19561;DHT22;9927;47.792;10.616;2022-11-15T19:46:39;9.10;99.90
19561;DHT22;9927;47.792;10.616;2022-11-15T19:49:07;9.10;99.90
19561;DHT22;9927;47.792;10.616;2022-11-15T19:51:38;9.00;99.90
19561;DHT22;9927;47.792;10.616;2022-11-15T19:54:07;9.00;99.90
19561;DHT22;9927;47.792;10.616;2022-11-15T19:56:36;9.00;99.90
19561;DHT22;9927;47.792;10.616;2022-11-15T19:59:04;9.00;99.90
19561;DHT22;9927;47.792;10.616;2022-11-15T20:01:33;9.00;99.90
19561;DHT22;9927;47.792;10.616;2022-11-15T20:04:02;9.00;99.90
19561;DHT22;9927;47.792;10.616;2022-11-15T20:06:36;9.10;99.90
19561;DHT22;9927;47.792;10.616;2022-11-15T20:09:04;9.00;99.90
19561;DHT22;9927;47.792;10.616;2022-11-15T20:11:31;9.00;99.90
19561;DHT22;9927;47.792;10.616;2022-11-15T20:14:00;9.00;99.90
19561;DHT22;9927;47.792;10.616;2022-11-15T20:16:30;9.00;99.90
19561;DHT22;9927;47.792;10.616;2022-11-15T20:18:58;9.00;99.90
19561;DHT22;9927;47.792;10.616;2022-11-15T20:21:25;8.70;99.90
19561;DHT22;9927;47.792;10.616;2022-11-15T20:23:52;8.60;99.90
19561;DHT22;9927;47.792;10.616;2022-11-15T20:26:20;8.60;99.90
19561;DHT22;9927;47.792;10.616;2022-11-15T20:28:48;8.70;99.90
19561;DHT22;9927;47.792;10.616;2022-11-15T20:31:16;8.80;99.90
19561;DHT22;9927;47.792;10.616;2022-11-15T20:33:43;8.70;99.90
19561;DHT22;9927;47.792;10.616;2022-11-15T20:36:12;8.80;99.90
19561;DHT22;9927;47.792;10.616;2022-11-15T20:38:40;8.70;99.90
19561;DHT22;9927;47.792;10.616;2022-11-15T20:41:13;8.80;99.90
19561;DHT22;9927;47.792;10.616;2022-11-15T20:43:40;8.80;99.90
19561;DHT22;9927;47.792;10.616;2022-11-15T20:46:11;8.80;99.90
19561;DHT22;9927;47.792;10.616;2022-11-15T20:48:38;8.80;99.90
19561;DHT22;9927;47.792;10.616;2022-11-15T20:51:12;8.80;99.90
19561;DHT22;9927;47.792;10.616;2022-11-15T20:53:41;8.80;99.90
19561;DHT22;9927;47.792;10.616;2022-11-15T20:56:11;8.80;99.90
19561;DHT22;9927;47.792;10.616;2022-11-15T20:58:40;8.80;99.90
19561;DHT22;9927;47.792;10.616;2022-11-15T21:01:09;8.60;99.90
19561;DHT22;9927;47.792;10.616;2022-11-15T21:03:37;8.60;99.90
19561;DHT22;9927;47.792;10.616;2022-11-15T21:06:05;8.60;99.90
19561;DHT22;9927;47.792;10.616;2022-11-15T21:08:32;8.60;99.90
19561;DHT22;9927;47.792;10.616;2022-11-15T21:11:19;8.40;99.90
19561;DHT22;9927;47.792;10.616;2022-11-15T21:14:05;8.40;99.90
19561;DHT22;9927;47.792;10.616;2022-11-15T21:16:36;8.50;99.90
19561;DHT22;9927;47.792;10.616;2022-11-15T21:19:04;8.60;99.90
19561;DHT22;9927;47.792;10.616;2022-11-15T21:21:32;8.60;99.90
19561;DHT22;9927;47.792;10.616;2022-11-15T21:24:02;8.50;99.90
19561;DHT22;9927;47.792;10.616;2022-11-15T21:26:30;8.60;99.90
19561;DHT22;9927;47.792;10.616;2022-11-15T21:28:57;8.50;99.90
19561;DHT22;9927;47.792;10.616;2022-11-15T21:31:24;8.50;99.90
19561;DHT22;9927;47.792;10.616;2022-11-15T21:33:51;8.50;99.90
19561;DHT22;9927;47.792;10.616;2022-11-15T21:36:18;8.40;99.90
19561;DHT22;9927;47.792;10.616;2022-11-15T21:38:46;8.50;99.90
19561;DHT22;9927;47.792;10.616;2022-11-15T21:41:13;8.50;99.90
19561;DHT22;9927;47.792;10.616;2022-11-15T21:43:40;8.50;99.90
19561;DHT22;9927;47.792;10.616;2022-11-15T21:46:08;8.50;99.90
19561;DHT22;9927;47.792;10.616;2022-11-15T21:48:35;8.50;99.90
19561;DHT22;9927;47.792;10.616;2022-11-15T21:51:05;8.50;99.90
19561;DHT22;9927;47.792;10.616;2022-11-15T21:53:33;8.50;99.90
19561;DHT22;9927;47.792;10.616;2022-11-15T21:56:00;8.50;99.90
19561;DHT22;9927;47.792;10.616;2022-11-15T21:58:28;8.40;99.90
